createdAt,value
2022-09-26T00:01:59.153Z,93.06
2022-09-26T00:04:33.012Z,92.89
2022-09-26T00:07:05.101Z,93.22
2022-09-26T00:09:37.055Z,92.65
2022-09-26T00:12:09.025Z,93.25
2022-09-26T00:14:40.995Z,93.17
2022-09-26T00:17:13.048Z,92.99
2022-09-26T00:19:45.049Z,93.10
2022-09-26T00:22:17.109Z,92.91
2022-09-26T00:24:49.150Z,92.77
2022-09-26T00:27:22.139Z,93.26
2022-09-26T00:29:54.086Z,93.09
2022-09-26T00:32:26.265Z,93.33
2022-09-26T00:34:58.186Z,93.46
2022-09-26T00:37:30.115Z,93.57
2022-09-26T00:40:02.228Z,93.29
2022-09-26T00:42:34.168Z,93.14
2022-09-26T00:45:06.739Z,93.67
2022-09-26T00:47:59.668Z,94.20
2022-09-26T00:50:35.370Z,93.66
2022-09-26T00:53:15.284Z,92.67
2022-09-26T00:56:06.214Z,93.70
2022-09-26T00:58:55.545Z,93.37
2022-09-26T01:01:28.238Z,93.82
2022-09-26T01:04:02.621Z,93.46
2022-09-26T01:06:34.591Z,92.80
2022-09-26T01:09:12.549Z,92.75
2022-09-26T01:11:45.449Z,92.04
2022-09-26T01:14:17.579Z,92.12
2022-09-26T01:16:54.288Z,92.58
2022-09-26T01:20:03.258Z,92.49
2022-09-26T01:23:18.484Z,92.81
2022-09-26T01:26:24.040Z,92.90
2022-09-26T01:29:20.393Z,92.70
2022-09-26T01:32:48.600Z,92.68
2022-09-26T01:35:56.691Z,92.36
2022-09-26T01:38:56.573Z,92.08
2022-09-26T01:42:18.086Z,92.25
2022-09-26T01:44:56.011Z,92.39
2022-09-26T01:47:42.838Z,92.52
2022-09-26T01:50:30.202Z,92.72
2022-09-26T01:53:10.295Z,91.88
2022-09-26T01:55:55.847Z,91.81
2022-09-26T01:58:39.124Z,91.60
2022-09-26T02:01:14.748Z,91.45
2022-09-26T02:03:54.856Z,91.68
2022-09-26T02:06:41.671Z,90.99
2022-09-26T02:09:41.384Z,91.82
2022-09-26T02:12:20.996Z,91.56
2022-09-26T02:14:58.280Z,92.09
2022-09-26T02:17:42.836Z,92.21
2022-09-26T02:20:23.889Z,92.25
2022-09-26T02:22:58.148Z,92.07
2022-09-26T02:25:30.989Z,91.75
2022-09-26T02:28:03.791Z,91.34
2022-09-26T02:30:36.956Z,91.02
2022-09-26T02:33:09.088Z,90.67
2022-09-26T02:35:56.539Z,91.37
2022-09-26T02:38:31.762Z,91.77
2022-09-26T02:41:15.030Z,91.46
2022-09-26T02:44:29.237Z,92.18
2022-09-26T02:47:44.910Z,92.09
2022-09-26T02:50:37.522Z,92.01
2022-09-26T02:53:41.001Z,92.35
2022-09-26T02:56:31.154Z,93.01
2022-09-26T02:59:24.787Z,93.42
2022-09-26T03:02:15.962Z,92.71
2022-09-26T03:05:04.155Z,92.89
2022-09-26T03:07:46.575Z,92.33
2022-09-26T03:10:19.797Z,92.74
2022-09-26T03:12:53.022Z,92.41
2022-09-26T03:15:27.221Z,92.58
2022-09-26T03:18:00.689Z,92.70
2022-09-26T03:20:32.802Z,91.75
2022-09-26T03:23:05.397Z,91.53
2022-09-26T03:25:38.239Z,91.70
2022-09-26T03:28:10.592Z,91.77
2022-09-26T03:30:42.500Z,91.29
2022-09-26T03:33:14.405Z,90.89
2022-09-26T03:35:46.498Z,91.32
2022-09-26T03:38:18.563Z,90.51
2022-09-26T03:40:53.839Z,90.21
2022-09-26T03:43:26.101Z,91.10
2022-09-26T03:46:06.378Z,90.32
2022-09-26T03:48:39.165Z,90.53
2022-09-26T03:51:14.046Z,90.90
2022-09-26T03:53:50.546Z,90.23
2022-09-26T03:56:23.438Z,90.50
2022-09-26T03:58:55.338Z,90.01
2022-09-26T04:01:27.419Z,89.76
2022-09-26T04:03:59.345Z,89.50
2022-09-26T04:06:31.382Z,89.27
2022-09-26T04:09:04.485Z,89.17
2022-09-26T04:11:36.410Z,89.60
2022-09-26T04:14:09.949Z,89.83
2022-09-26T04:16:41.989Z,89.48
2022-09-26T04:19:15.173Z,89.34
2022-09-26T04:21:47.224Z,89.51
2022-09-26T04:24:19.683Z,88.94
2022-09-26T04:26:51.880Z,89.62
2022-09-26T04:29:23.792Z,89.53
2022-09-26T04:31:55.957Z,89.45
2022-09-26T04:34:27.990Z,88.73
2022-09-26T04:37:00.586Z,88.56
2022-09-26T04:39:33.165Z,88.86
2022-09-26T04:42:05.104Z,88.24
2022-09-26T04:44:37.021Z,88.21
2022-09-26T04:47:09.020Z,88.32
2022-09-26T04:49:40.919Z,87.71
2022-09-26T04:52:13.685Z,88.17
2022-09-26T04:54:45.584Z,87.80
2022-09-26T04:57:24.797Z,87.97
2022-09-26T04:59:56.808Z,88.00
2022-09-26T05:02:30.382Z,87.78
2022-09-26T05:05:02.428Z,87.47
2022-09-26T05:07:34.400Z,87.72
2022-09-26T05:10:07.410Z,88.22
2022-09-26T05:12:39.681Z,89.84
2022-09-26T05:15:11.612Z,92.02
2022-09-26T05:17:45.523Z,93.42
2022-09-26T05:20:20.629Z,95.06
2022-09-26T05:22:52.568Z,95.58
2022-09-26T05:25:44.456Z,97.35
2022-09-26T05:28:16.714Z,99.58
2022-09-26T05:30:50.379Z,100.00
2022-09-26T05:33:22.487Z,100.00
2022-09-26T05:35:54.830Z,100.00
2022-09-26T05:38:26.794Z,100.00
2022-09-26T05:40:59.299Z,100.00
2022-09-26T05:43:33.800Z,100.00
2022-09-26T05:46:08.992Z,100.00
2022-09-26T05:48:41.584Z,100.00
2022-09-26T05:51:17.076Z,100.00
2022-09-26T05:53:49.740Z,100.00
2022-09-26T05:56:21.739Z,100.00
2022-09-26T05:58:55.091Z,100.00
2022-09-26T06:01:27.029Z,100.00
2022-09-26T06:03:59.113Z,100.00
2022-09-26T06:06:31.124Z,100.00
2022-09-26T06:09:03.926Z,100.00
2022-09-26T06:11:35.858Z,100.00
2022-09-26T06:14:08.308Z,100.00
2022-09-26T06:16:40.348Z,100.00
2022-09-26T06:19:12.299Z,100.00
2022-09-26T06:21:44.286Z,100.00
2022-09-26T06:24:17.812Z,100.00
2022-09-26T06:26:49.792Z,100.00
2022-09-26T06:29:21.704Z,100.00
2022-09-26T06:31:53.675Z,100.00
2022-09-26T06:34:26.527Z,100.00
2022-09-26T06:36:59.550Z,100.00
2022-09-26T06:39:37.225Z,100.00
2022-09-26T06:42:09.161Z,100.00
2022-09-26T06:44:41.112Z,100.00
2022-09-26T06:47:13.360Z,99.94
2022-09-26T06:49:48.567Z,99.63
2022-09-26T06:52:20.714Z,99.10
2022-09-26T06:54:55.404Z,99.10
2022-09-26T06:57:27.299Z,97.90
2022-09-26T06:59:59.273Z,97.72
2022-09-26T07:02:31.346Z,97.11
2022-09-26T07:05:05.600Z,96.85
2022-09-26T07:07:42.378Z,96.60
2022-09-26T07:10:16.789Z,95.52
2022-09-26T07:12:49.254Z,95.60
2022-09-26T07:15:21.275Z,94.43
2022-09-26T07:17:53.739Z,94.58
2022-09-26T07:20:25.664Z,94.27
2022-09-26T07:23:00.045Z,92.79
2022-09-26T07:25:33.371Z,92.77
2022-09-26T07:28:09.730Z,93.73
2022-09-26T07:30:41.939Z,92.83
2022-09-26T07:33:13.843Z,92.41
2022-09-26T07:35:46.214Z,90.19
2022-09-26T07:38:18.327Z,90.37
2022-09-26T07:40:54.477Z,89.75
2022-09-26T07:43:53.331Z,88.89
2022-09-26T07:46:37.026Z,86.92
2022-09-26T07:49:27.428Z,86.36
2022-09-26T07:52:00.869Z,88.28
2022-09-26T07:54:32.776Z,86.57
2022-09-26T07:57:07.720Z,85.78
2022-09-26T07:59:39.677Z,84.83
2022-09-26T08:02:42.872Z,84.57
2022-09-26T08:05:20.145Z,86.10
2022-09-26T08:07:52.307Z,85.73
2022-09-26T08:10:24.541Z,83.59
2022-09-26T08:12:56.850Z,83.04
2022-09-26T08:15:28.747Z,84.30
2022-09-26T08:18:00.665Z,84.11
2022-09-26T08:20:33.176Z,82.70
2022-09-26T08:23:05.247Z,81.77
2022-09-26T08:25:37.136Z,82.46
2022-09-26T08:28:12.346Z,81.27
2022-09-26T08:30:45.043Z,81.58
2022-09-26T08:33:19.122Z,82.49
2022-09-26T08:35:51.111Z,80.70
2022-09-26T08:38:23.282Z,79.29
2022-09-26T08:41:03.495Z,79.33
2022-09-26T08:44:03.731Z,79.32
2022-09-26T08:46:58.586Z,79.80
2022-09-26T08:49:59.800Z,80.09
2022-09-26T08:52:52.160Z,80.67
2022-09-26T08:55:37.473Z,79.99
2022-09-26T08:58:29.196Z,78.47
2022-09-26T09:01:04.954Z,77.84
2022-09-26T09:03:52.303Z,77.51
2022-09-26T09:06:28.453Z,78.40
2022-09-26T09:09:01.122Z,78.56
2022-09-26T09:11:50.875Z,80.33
2022-09-26T09:14:57.979Z,80.56
2022-09-26T09:17:58.088Z,81.03
2022-09-26T09:20:59.005Z,81.88
2022-09-26T09:23:51.253Z,84.39
2022-09-26T09:30:16.637Z,86.64
2022-09-26T09:33:00.845Z,86.70
2022-09-26T09:35:46.825Z,85.91
2022-09-26T09:38:25.921Z,85.53
2022-09-26T09:41:14.045Z,86.36
2022-09-26T09:44:33.366Z,87.47
2022-09-26T09:47:17.867Z,87.07
2022-09-26T09:49:50.610Z,88.38
2022-09-26T09:52:50.095Z,90.28
2022-09-26T09:55:52.669Z,90.60
2022-09-26T09:58:45.953Z,92.70
2022-09-26T10:01:34.236Z,94.01
2022-09-26T10:04:44.428Z,93.49
2022-09-26T10:07:16.403Z,93.02
2022-09-26T10:09:52.119Z,95.44
2022-09-26T10:12:30.673Z,96.09
2022-09-26T10:15:07.682Z,97.04
2022-09-26T10:17:40.241Z,97.90
2022-09-26T10:20:42.840Z,99.98
2022-09-26T10:23:35.896Z,100.00
2022-09-26T10:26:16.676Z,100.00
2022-09-26T10:28:52.925Z,100.00
2022-09-26T10:31:41.398Z,100.00
2022-09-26T10:34:33.287Z,100.00
2022-09-26T10:37:26.037Z,100.00
2022-09-26T10:40:17.721Z,100.00
2022-09-26T10:42:50.155Z,100.00
2022-09-26T10:45:27.699Z,100.00
2022-09-26T10:48:03.322Z,100.00
2022-09-26T10:50:35.537Z,100.00
2022-09-26T10:53:19.661Z,100.00
2022-09-26T10:56:01.045Z,100.00
2022-09-26T10:58:43.071Z,100.00
2022-09-26T11:01:30.356Z,100.00
2022-09-26T11:04:46.843Z,100.00
2022-09-26T11:07:33.640Z,100.00
2022-09-26T11:10:24.629Z,100.00
2022-09-26T11:13:02.715Z,100.00
2022-09-26T11:15:40.201Z,100.00
2022-09-26T11:18:25.808Z,100.00
2022-09-26T11:21:23.086Z,98.48
2022-09-26T11:30:21.651Z,98.57
2022-09-26T11:36:27.516Z,96.35
2022-09-26T11:43:29.868Z,98.04
2022-09-26T11:46:30.159Z,97.61
2022-09-26T11:49:23.747Z,96.19
2022-09-26T11:52:29.757Z,95.03
2022-09-26T11:55:08.250Z,94.59
2022-09-26T11:58:19.779Z,94.10
2022-09-26T12:01:27.628Z,93.88
2022-09-26T12:04:18.271Z,93.27
2022-09-26T12:07:05.460Z,93.64
2022-09-26T12:10:12.504Z,95.22
2022-09-26T12:12:56.867Z,96.49
2022-09-26T12:15:46.122Z,96.77
2022-09-26T12:18:34.544Z,98.59
2022-09-26T12:21:21.209Z,99.58
2022-09-26T12:24:28.882Z,100.00
2022-09-26T12:27:34.318Z,100.00
2022-09-26T12:30:14.028Z,100.00
2022-09-26T12:33:50.768Z,100.00
2022-09-26T12:36:53.294Z,100.00
2022-09-26T12:39:57.475Z,100.00
2022-09-26T12:42:51.992Z,100.00
2022-09-26T12:45:42.264Z,100.00
2022-09-26T12:48:47.131Z,100.00
2022-09-26T12:51:49.046Z,100.00
2022-09-26T12:54:36.724Z,100.00
2022-09-26T12:57:24.442Z,100.00
2022-09-26T13:00:22.896Z,100.00
2022-09-26T13:03:47.184Z,100.00
2022-09-26T13:06:52.858Z,100.00
2022-09-26T13:10:05.054Z,100.00
2022-09-26T13:13:23.241Z,100.00
2022-09-26T13:16:25.563Z,100.00
2022-09-26T13:19:31.585Z,100.00
2022-09-26T13:22:27.744Z,100.00
2022-09-26T13:25:21.226Z,100.00
2022-09-26T13:28:07.208Z,100.00
2022-09-26T13:31:12.614Z,100.00
2022-09-26T13:33:59.990Z,100.00
2022-09-26T13:36:34.103Z,100.00
2022-09-26T13:39:35.792Z,100.00
2022-09-26T13:42:29.609Z,100.00
2022-09-26T13:45:19.517Z,100.00
2022-09-26T13:48:18.369Z,100.00
2022-09-26T13:50:56.094Z,100.00
2022-09-26T13:53:38.346Z,100.00
2022-09-26T13:56:36.049Z,100.00
2022-09-26T13:59:14.568Z,100.00
2022-09-26T14:02:29.264Z,100.00
2022-09-26T14:05:28.584Z,100.00
2022-09-26T14:08:53.508Z,100.00
2022-09-26T14:11:45.305Z,100.00
2022-09-26T14:14:21.323Z,100.00
2022-09-26T14:17:01.775Z,100.00
2022-09-26T14:19:42.652Z,100.00
2022-09-26T14:22:23.203Z,100.00
2022-09-26T14:24:59.962Z,100.00
2022-09-26T14:27:37.857Z,100.00
2022-09-26T14:30:30.984Z,100.00
2022-09-26T14:33:09.311Z,100.00
2022-09-26T14:35:43.251Z,100.00
2022-09-26T14:38:17.716Z,100.00
2022-09-26T14:41:00.482Z,100.00
2022-09-26T14:43:33.413Z,100.00
2022-09-26T14:46:15.936Z,100.00
2022-09-26T14:48:48.079Z,100.00
2022-09-26T14:51:42.045Z,100.00
2022-09-26T14:54:32.194Z,100.00
2022-09-26T14:57:21.128Z,100.00
2022-09-26T14:59:53.772Z,100.00
2022-09-26T15:02:39.936Z,100.00
2022-09-26T15:05:20.055Z,100.00
2022-09-26T15:07:55.365Z,100.00
2022-09-26T15:10:42.048Z,100.00
2022-09-26T15:13:36.800Z,100.00
2022-09-26T15:16:37.632Z,100.00
2022-09-26T15:19:19.669Z,100.00
2022-09-26T15:22:00.245Z,100.00
2022-09-26T15:24:35.604Z,100.00
2022-09-26T15:27:27.228Z,100.00
2022-09-26T15:30:07.555Z,100.00
2022-09-26T15:32:39.697Z,100.00
2022-09-26T15:35:14.150Z,100.00
2022-09-26T15:37:46.624Z,100.00
2022-09-26T15:40:24.995Z,100.00
2022-09-26T15:43:16.066Z,100.00
2022-09-26T15:45:48.480Z,100.00
2022-09-26T15:48:20.391Z,100.00
2022-09-26T15:51:05.863Z,100.00
2022-09-26T15:53:40.492Z,100.00
2022-09-26T15:56:33.720Z,100.00
2022-09-26T15:59:28.352Z,100.00
2022-09-26T16:02:01.399Z,100.00
2022-09-26T16:04:33.968Z,100.00
2022-09-26T16:07:21.171Z,100.00
2022-09-26T16:09:56.192Z,100.00
2022-09-26T16:12:29.835Z,100.00
2022-09-26T16:15:17.974Z,100.00
2022-09-26T16:17:54.492Z,100.00
2022-09-26T16:20:32.683Z,100.00
2022-09-26T16:23:05.857Z,100.00
2022-09-26T16:25:47.733Z,100.00
2022-09-26T16:28:42.692Z,100.00
2022-09-26T16:31:36.895Z,100.00
2022-09-26T16:34:23.742Z,100.00
2022-09-26T16:36:56.706Z,100.00
2022-09-26T16:39:31.119Z,100.00
2022-09-26T16:42:14.836Z,100.00
2022-09-26T16:44:57.614Z,100.00
2022-09-26T16:47:39.090Z,100.00
2022-09-26T16:50:25.487Z,100.00
2022-09-26T16:52:58.009Z,100.00
2022-09-26T16:55:35.082Z,100.00
2022-09-26T16:58:07.092Z,100.00
2022-09-26T17:01:01.701Z,100.00
2022-09-26T17:03:34.696Z,100.00
2022-09-26T17:06:06.977Z,100.00
2022-09-26T17:08:39.051Z,100.00
2022-09-26T17:11:15.723Z,100.00
2022-09-26T17:13:50.345Z,100.00
2022-09-26T17:16:22.404Z,100.00
2022-09-26T17:18:57.775Z,100.00
2022-09-26T17:21:29.910Z,100.00
2022-09-26T17:24:02.101Z,100.00
2022-09-26T17:26:35.092Z,100.00
2022-09-26T17:29:18.129Z,100.00
2022-09-26T17:31:50.562Z,100.00
2022-09-26T17:34:23.566Z,100.00
2022-09-26T17:36:58.874Z,100.00
2022-09-26T17:39:31.025Z,100.00
2022-09-26T17:42:03.518Z,100.00
2022-09-26T17:44:36.900Z,100.00
2022-09-26T17:47:11.733Z,100.00
2022-09-26T17:49:48.612Z,100.00
2022-09-26T17:52:32.718Z,100.00
2022-09-26T17:55:07.602Z,100.00
2022-09-26T17:57:41.925Z,100.00
2022-09-26T18:00:19.395Z,100.00
2022-09-26T18:03:00.517Z,100.00
2022-09-26T18:05:37.046Z,100.00
2022-09-26T18:08:24.711Z,100.00
2022-09-26T18:11:00.613Z,100.00
2022-09-26T18:13:36.321Z,100.00
2022-09-26T18:16:11.276Z,100.00
2022-09-26T18:18:44.136Z,100.00
2022-09-26T18:21:18.879Z,100.00
2022-09-26T18:24:06.522Z,100.00
2022-09-26T18:26:47.358Z,100.00
2022-09-26T18:29:35.493Z,100.00
2022-09-26T18:32:29.051Z,100.00
2022-09-26T18:35:01.262Z,100.00
2022-09-26T18:37:33.223Z,100.00
2022-09-26T18:40:05.876Z,100.00
2022-09-26T18:42:38.661Z,100.00
2022-09-26T18:45:15.369Z,100.00
2022-09-26T18:47:47.405Z,100.00
2022-09-26T18:50:36.821Z,100.00
2022-09-26T18:53:18.852Z,100.00
2022-09-26T18:56:09.807Z,100.00
2022-09-26T18:58:41.849Z,100.00
2022-09-26T19:01:25.876Z,100.00
2022-09-26T19:04:01.386Z,100.00
2022-09-26T19:06:41.737Z,100.00
2022-09-26T19:09:20.830Z,100.00
2022-09-26T19:11:53.441Z,100.00
2022-09-26T19:14:28.713Z,100.00
2022-09-26T19:17:00.814Z,100.00
2022-09-26T19:19:33.061Z,100.00
2022-09-26T19:22:17.027Z,100.00
2022-09-26T19:25:00.495Z,100.00
2022-09-26T19:27:42.573Z,100.00
2022-09-26T19:30:20.072Z,100.00
2022-09-26T19:32:56.440Z,100.00
2022-09-26T19:35:31.430Z,100.00
2022-09-26T19:38:17.599Z,100.00
2022-09-26T19:40:51.689Z,100.00
2022-09-26T19:43:23.770Z,100.00
2022-09-26T19:45:56.023Z,100.00
2022-09-26T19:48:28.843Z,100.00
2022-09-26T19:51:01.329Z,100.00
2022-09-26T19:53:34.916Z,100.00
2022-09-26T19:56:07.100Z,100.00
2022-09-26T19:58:39.267Z,100.00
2022-09-26T20:01:21.359Z,100.00
2022-09-26T20:03:53.654Z,100.00
2022-09-26T20:06:26.345Z,100.00
2022-09-26T20:09:01.687Z,100.00
2022-09-26T20:11:34.070Z,100.00
2022-09-26T20:14:23.944Z,100.00
2022-09-26T20:17:00.716Z,100.00
2022-09-26T20:19:40.075Z,100.00
2022-09-26T20:22:18.445Z,100.00
2022-09-26T20:24:55.427Z,100.00
2022-09-26T20:27:29.295Z,100.00
2022-09-26T20:30:19.439Z,100.00
2022-09-26T20:32:51.368Z,100.00
2022-09-26T20:35:23.501Z,100.00
2022-09-26T20:38:08.235Z,100.00
2022-09-26T20:40:41.010Z,100.00
2022-09-26T20:43:22.500Z,100.00
2022-09-26T20:45:54.539Z,100.00
2022-09-26T20:48:28.138Z,100.00
2022-09-26T20:51:05.189Z,100.00
2022-09-26T20:53:37.149Z,100.00
2022-09-26T20:56:21.113Z,100.00
2022-09-26T20:58:53.265Z,100.00
2022-09-26T21:01:28.842Z,100.00
2022-09-26T21:04:01.129Z,100.00
2022-09-26T21:06:35.116Z,100.00
2022-09-26T21:09:18.722Z,100.00
2022-09-26T21:11:50.752Z,100.00
2022-09-26T21:14:22.734Z,100.00
2022-09-26T21:16:55.036Z,100.00
2022-09-26T21:19:28.759Z,100.00
2022-09-26T21:22:02.710Z,100.00
2022-09-26T21:24:38.785Z,100.00
2022-09-26T21:27:14.310Z,100.00
2022-09-26T21:29:46.290Z,100.00
2022-09-26T21:32:21.242Z,100.00
2022-09-26T21:35:02.205Z,100.00
2022-09-26T21:37:35.038Z,100.00
2022-09-26T21:40:08.372Z,100.00
2022-09-26T21:42:43.099Z,100.00
2022-09-26T21:45:16.885Z,100.00
2022-09-26T21:47:49.755Z,100.00
2022-09-26T21:50:23.455Z,100.00
2022-09-26T21:53:06.058Z,100.00
2022-09-26T21:55:46.729Z,100.00
2022-09-26T21:58:24.684Z,100.00
2022-09-26T22:00:57.816Z,100.00
2022-09-26T22:03:29.811Z,100.00
2022-09-26T22:06:09.444Z,100.00
2022-09-26T22:08:42.611Z,100.00
2022-09-26T22:11:14.561Z,100.00
2022-09-26T22:13:46.612Z,100.00
2022-09-26T22:16:18.690Z,100.00
2022-09-26T22:18:50.627Z,100.00
2022-09-26T22:21:22.574Z,100.00
2022-09-26T22:23:54.678Z,100.00
2022-09-26T22:26:26.696Z,100.00
2022-09-26T22:28:58.642Z,100.00
2022-09-26T22:31:30.631Z,100.00
2022-09-26T22:34:02.631Z,100.00
2022-09-26T22:36:34.992Z,100.00
2022-09-26T22:39:07.059Z,100.00
2022-09-26T22:41:39.054Z,100.00
2022-09-26T22:44:11.048Z,100.00
2022-09-26T22:46:43.105Z,100.00
2022-09-26T22:49:15.203Z,100.00
2022-09-26T22:51:47.228Z,100.00
2022-09-26T22:54:19.621Z,100.00
2022-09-26T22:56:51.625Z,100.00
2022-09-26T22:59:23.541Z,100.00
2022-09-26T23:01:58.739Z,100.00
2022-09-26T23:04:47.049Z,100.00
2022-09-26T23:07:20.018Z,100.00
2022-09-26T23:09:51.970Z,100.00
2022-09-26T23:12:24.014Z,100.00
2022-09-26T23:14:55.956Z,100.00
2022-09-26T23:17:28.104Z,100.00
2022-09-26T23:20:00.263Z,100.00
2022-09-26T23:22:32.206Z,100.00
2022-09-26T23:25:04.448Z,100.00
2022-09-26T23:27:36.434Z,100.00
2022-09-26T23:30:09.058Z,100.00
2022-09-26T23:32:41.023Z,100.00
2022-09-26T23:35:13.745Z,100.00
2022-09-26T23:37:45.692Z,100.00
2022-09-26T23:40:17.690Z,100.00
2022-09-26T23:42:49.715Z,100.00
2022-09-26T23:45:21.681Z,100.00
2022-09-26T23:47:54.151Z,100.00
2022-09-26T23:50:27.665Z,100.00
2022-09-26T23:53:04.437Z,100.00
2022-09-26T23:55:38.528Z,100.00
2022-09-26T23:58:11.759Z,100.00
